sensor_id;sensor_type;location;lat;lon;timestamp;P1;durP1;ratioP1;P2;durP2;ratioP2
20749;SDS011;10535;50.664;4.564;2022-11-15T00:00:52;20.73;;;10.07;;
20749;SDS011;10535;50.664;4.564;2022-11-15T00:03:19;19.53;;;9.87;;
20749;SDS011;10535;50.664;4.564;2022-11-15T00:05:46;18.23;;;10.00;;
20749;SDS011;10535;50.664;4.564;2022-11-15T00:08:12;19.00;;;9.43;;
20749;SDS011;10535;50.664;4.564;2022-11-15T00:10:38;24.63;;;9.90;;
20749;SDS011;10535;50.664;4.564;2022-11-15T00:13:04;19.67;;;9.30;;
20749;SDS011;10535;50.664;4.564;2022-11-15T00:15:31;18.07;;;10.00;;
20749;SDS011;10535;50.664;4.564;2022-11-15T00:17:59;17.60;;;10.07;;
20749;SDS011;10535;50.664;4.564;2022-11-15T00:20:24;22.53;;;10.23;;
20749;SDS011;10535;50.664;4.564;2022-11-15T00:22:50;17.27;;;9.60;;
20749;SDS011;10535;50.664;4.564;2022-11-15T00:25:15;16.40;;;9.87;;
20749;SDS011;10535;50.664;4.564;2022-11-15T00:27:41;15.33;;;9.47;;
20749;SDS011;10535;50.664;4.564;2022-11-15T00:30:07;19.90;;;9.27;;
20749;SDS011;10535;50.664;4.564;2022-11-15T00:32:33;16.33;;;9.53;;
20749;SDS011;10535;50.664;4.564;2022-11-15T00:34:58;22.03;;;9.90;;
20749;SDS011;10535;50.664;4.564;2022-11-15T00:37:24;16.53;;;9.67;;
20749;SDS011;10535;50.664;4.564;2022-11-15T00:39:50;18.77;;;9.73;;
20749;SDS011;10535;50.664;4.564;2022-11-15T00:42:15;19.23;;;10.07;;
20749;SDS011;10535;50.664;4.564;2022-11-15T00:44:41;19.77;;;9.90;;
20749;SDS011;10535;50.664;4.564;2022-11-15T00:47:06;19.73;;;10.37;;
20749;SDS011;10535;50.664;4.564;2022-11-15T00:49:32;17.83;;;10.23;;
20749;SDS011;10535;50.664;4.564;2022-11-15T00:51:58;15.87;;;9.23;;
20749;SDS011;10535;50.664;4.564;2022-11-15T00:54:24;19.47;;;8.90;;
20749;SDS011;10535;50.664;4.564;2022-11-15T00:56:49;20.20;;;9.40;;
20749;SDS011;10535;50.664;4.564;2022-11-15T00:59:15;14.53;;;8.80;;
20749;SDS011;10535;50.664;4.564;2022-11-15T01:01:41;16.63;;;9.87;;
20749;SDS011;10535;50.664;4.564;2022-11-15T01:04:06;19.07;;;9.53;;
20749;SDS011;10535;50.664;4.564;2022-11-15T01:06:32;15.43;;;8.87;;
20749;SDS011;10535;50.664;4.564;2022-11-15T01:08:58;15.93;;;9.17;;
20749;SDS011;10535;50.664;4.564;2022-11-15T01:11:23;17.00;;;9.07;;
20749;SDS011;10535;50.664;4.564;2022-11-15T01:13:49;20.93;;;10.43;;
20749;SDS011;10535;50.664;4.564;2022-11-15T01:16:16;15.30;;;9.07;;
20749;SDS011;10535;50.664;4.564;2022-11-15T01:18:43;14.87;;;9.37;;
20749;SDS011;10535;50.664;4.564;2022-11-15T01:21:11;19.20;;;9.20;;
20749;SDS011;10535;50.664;4.564;2022-11-15T01:23:38;17.37;;;10.00;;
20749;SDS011;10535;50.664;4.564;2022-11-15T01:26:05;17.27;;;9.53;;
20749;SDS011;10535;50.664;4.564;2022-11-15T01:28:33;18.37;;;9.67;;
20749;SDS011;10535;50.664;4.564;2022-11-15T01:31:01;16.23;;;9.63;;
20749;SDS011;10535;50.664;4.564;2022-11-15T01:33:28;15.13;;;9.17;;
20749;SDS011;10535;50.664;4.564;2022-11-15T01:35:54;19.77;;;9.93;;
20749;SDS011;10535;50.664;4.564;2022-11-15T01:38:20;18.20;;;9.60;;
20749;SDS011;10535;50.664;4.564;2022-11-15T01:40:46;15.60;;;9.40;;
20749;SDS011;10535;50.664;4.564;2022-11-15T01:43:22;15.93;;;9.53;;
20749;SDS011;10535;50.664;4.564;2022-11-15T01:45:52;17.33;;;9.53;;
20749;SDS011;10535;50.664;4.564;2022-11-15T01:48:26;20.33;;;10.70;;
20749;SDS011;10535;50.664;4.564;2022-11-15T01:50:58;19.20;;;10.10;;
20749;SDS011;10535;50.664;4.564;2022-11-15T01:53:25;17.70;;;10.20;;
20749;SDS011;10535;50.664;4.564;2022-11-15T01:55:52;16.43;;;9.33;;
20749;SDS011;10535;50.664;4.564;2022-11-15T01:58:19;18.30;;;9.10;;
20749;SDS011;10535;50.664;4.564;2022-11-15T02:00:45;16.77;;;10.10;;
20749;SDS011;10535;50.664;4.564;2022-11-15T02:03:12;18.50;;;9.47;;
20749;SDS011;10535;50.664;4.564;2022-11-15T02:05:38;16.53;;;9.33;;
20749;SDS011;10535;50.664;4.564;2022-11-15T02:08:06;18.67;;;9.60;;
20749;SDS011;10535;50.664;4.564;2022-11-15T02:10:33;14.97;;;9.33;;
20749;SDS011;10535;50.664;4.564;2022-11-15T02:12:58;20.30;;;9.87;;
20749;SDS011;10535;50.664;4.564;2022-11-15T02:15:26;20.37;;;10.57;;
20749;SDS011;10535;50.664;4.564;2022-11-15T02:28:30;17.93;;;10.70;;
20749;SDS011;10535;50.664;4.564;2022-11-15T02:34:12;19.60;;;10.77;;
20749;SDS011;10535;50.664;4.564;2022-11-15T02:37:00;17.70;;;10.20;;
20749;SDS011;10535;50.664;4.564;2022-11-15T02:39:43;19.27;;;10.07;;
20749;SDS011;10535;50.664;4.564;2022-11-15T02:42:17;16.33;;;10.10;;
20749;SDS011;10535;50.664;4.564;2022-11-15T02:45:08;20.97;;;10.03;;
20749;SDS011;10535;50.664;4.564;2022-11-15T02:47:41;20.30;;;11.30;;
20749;SDS011;10535;50.664;4.564;2022-11-15T03:11:20;19.97;;;9.93;;
20749;SDS011;10535;50.664;4.564;2022-11-15T03:17:30;13.63;;;7.97;;
20749;SDS011;10535;50.664;4.564;2022-11-15T03:20:11;14.27;;;7.57;;
20749;SDS011;10535;50.664;4.564;2022-11-15T03:23:03;12.80;;;7.37;;
20749;SDS011;10535;50.664;4.564;2022-11-15T03:25:38;12.57;;;6.73;;
20749;SDS011;10535;50.664;4.564;2022-11-15T03:28:13;16.03;;;7.43;;
20749;SDS011;10535;50.664;4.564;2022-11-15T03:30:49;14.43;;;7.33;;
20749;SDS011;10535;50.664;4.564;2022-11-15T03:33:22;14.40;;;8.23;;
20749;SDS011;10535;50.664;4.564;2022-11-15T03:36:09;14.43;;;8.10;;
20749;SDS011;10535;50.664;4.564;2022-11-15T03:38:46;12.87;;;7.60;;
20749;SDS011;10535;50.664;4.564;2022-11-15T03:41:20;13.53;;;7.97;;
20749;SDS011;10535;50.664;4.564;2022-11-15T03:44:01;12.03;;;6.80;;
20749;SDS011;10535;50.664;4.564;2022-11-15T03:46:39;18.37;;;7.93;;
20749;SDS011;10535;50.664;4.564;2022-11-15T04:15:08;11.77;;;6.80;;
20749;SDS011;10535;50.664;4.564;2022-11-15T04:17:48;12.30;;;6.73;;
20749;SDS011;10535;50.664;4.564;2022-11-15T04:20:23;13.83;;;6.27;;
20749;SDS011;10535;50.664;4.564;2022-11-15T04:23:16;17.90;;;6.53;;
20749;SDS011;10535;50.664;4.564;2022-11-15T04:26:05;13.50;;;7.03;;
20749;SDS011;10535;50.664;4.564;2022-11-15T04:28:41;13.63;;;7.03;;
20749;SDS011;10535;50.664;4.564;2022-11-15T04:31:27;13.07;;;6.03;;
20749;SDS011;10535;50.664;4.564;2022-11-15T04:33:57;9.13;;;5.23;;
20749;SDS011;10535;50.664;4.564;2022-11-15T04:36:27;11.53;;;5.80;;
20749;SDS011;10535;50.664;4.564;2022-11-15T04:39:13;13.93;;;6.10;;
20749;SDS011;10535;50.664;4.564;2022-11-15T04:41:39;9.63;;;5.97;;
20749;SDS011;10535;50.664;4.564;2022-11-15T04:44:09;14.73;;;6.63;;
20749;SDS011;10535;50.664;4.564;2022-11-15T04:46:44;9.77;;;4.90;;
20749;SDS011;10535;50.664;4.564;2022-11-15T04:49:13;8.97;;;5.53;;
20749;SDS011;10535;50.664;4.564;2022-11-15T04:51:55;14.67;;;6.00;;
20749;SDS011;10535;50.664;4.564;2022-11-15T04:57:12;13.97;;;5.20;;
20749;SDS011;10535;50.664;4.564;2022-11-15T05:00:03;14.03;;;5.20;;
20749;SDS011;10535;50.664;4.564;2022-11-15T05:02:42;9.77;;;4.57;;
20749;SDS011;10535;50.664;4.564;2022-11-15T05:05:27;10.23;;;5.07;;
20749;SDS011;10535;50.664;4.564;2022-11-15T05:07:56;8.67;;;4.97;;
20749;SDS011;10535;50.664;4.564;2022-11-15T05:10:34;11.87;;;4.93;;
20749;SDS011;10535;50.664;4.564;2022-11-15T05:13:11;11.27;;;4.80;;
20749;SDS011;10535;50.664;4.564;2022-11-15T05:16:10;11.60;;;5.20;;
20749;SDS011;10535;50.664;4.564;2022-11-15T05:18:58;10.33;;;5.13;;
20749;SDS011;10535;50.664;4.564;2022-11-15T05:21:24;19.93;;;5.40;;
20749;SDS011;10535;50.664;4.564;2022-11-15T05:23:54;11.33;;;4.90;;
20749;SDS011;10535;50.664;4.564;2022-11-15T05:26:32;9.60;;;5.83;;
20749;SDS011;10535;50.664;4.564;2022-11-15T05:28:59;9.70;;;5.43;;
20749;SDS011;10535;50.664;4.564;2022-11-15T05:34:01;11.37;;;5.30;;
20749;SDS011;10535;50.664;4.564;2022-11-15T05:36:36;7.23;;;4.60;;
20749;SDS011;10535;50.664;4.564;2022-11-15T05:39:23;7.00;;;4.97;;
20749;SDS011;10535;50.664;4.564;2022-11-15T05:41:55;10.57;;;5.30;;
20749;SDS011;10535;50.664;4.564;2022-11-15T05:44:30;9.13;;;5.37;;
20749;SDS011;10535;50.664;4.564;2022-11-15T05:47:00;13.83;;;5.77;;
20749;SDS011;10535;50.664;4.564;2022-11-15T05:49:32;10.07;;;5.60;;
20749;SDS011;10535;50.664;4.564;2022-11-15T05:52:02;13.07;;;6.47;;
20749;SDS011;10535;50.664;4.564;2022-11-15T05:54:33;9.60;;;5.40;;
20749;SDS011;10535;50.664;4.564;2022-11-15T05:57:04;9.70;;;5.77;;
20749;SDS011;10535;50.664;4.564;2022-11-15T05:59:36;10.90;;;5.73;;
20749;SDS011;10535;50.664;4.564;2022-11-15T06:02:12;11.73;;;5.33;;
20749;SDS011;10535;50.664;4.564;2022-11-15T06:04:39;8.50;;;5.00;;
20749;SDS011;10535;50.664;4.564;2022-11-15T06:07:30;9.93;;;5.30;;
20749;SDS011;10535;50.664;4.564;2022-11-15T06:10:41;7.73;;;4.60;;
20749;SDS011;10535;50.664;4.564;2022-11-15T06:13:36;9.63;;;4.83;;
20749;SDS011;10535;50.664;4.564;2022-11-15T06:16:32;9.33;;;5.10;;
20749;SDS011;10535;50.664;4.564;2022-11-15T06:19:05;8.27;;;4.93;;
20749;SDS011;10535;50.664;4.564;2022-11-15T06:21:37;10.23;;;5.13;;
20749;SDS011;10535;50.664;4.564;2022-11-15T06:24:32;8.27;;;4.80;;
20749;SDS011;10535;50.664;4.564;2022-11-15T06:27:10;9.83;;;4.77;;
20749;SDS011;10535;50.664;4.564;2022-11-15T06:29:45;12.03;;;5.20;;
20749;SDS011;10535;50.664;4.564;2022-11-15T06:32:11;6.93;;;3.80;;
20749;SDS011;10535;50.664;4.564;2022-11-15T06:35:13;8.60;;;3.63;;
20749;SDS011;10535;50.664;4.564;2022-11-15T06:38:09;7.10;;;3.67;;
20749;SDS011;10535;50.664;4.564;2022-11-15T06:40:37;8.23;;;4.10;;
20749;SDS011;10535;50.664;4.564;2022-11-15T06:43:04;6.37;;;3.63;;
20749;SDS011;10535;50.664;4.564;2022-11-15T07:03:34;9.53;;;4.00;;
20749;SDS011;10535;50.664;4.564;2022-11-15T07:06:35;13.00;;;4.00;;
20749;SDS011;10535;50.664;4.564;2022-11-15T07:09:56;5.37;;;3.30;;
20749;SDS011;10535;50.664;4.564;2022-11-15T07:12:29;9.33;;;4.13;;
20749;SDS011;10535;50.664;4.564;2022-11-15T07:15:51;6.67;;;3.63;;
20749;SDS011;10535;50.664;4.564;2022-11-15T07:18:44;6.30;;;3.67;;
20749;SDS011;10535;50.664;4.564;2022-11-15T07:21:42;6.03;;;3.30;;
20749;SDS011;10535;50.664;4.564;2022-11-15T07:24:41;5.53;;;3.13;;
20749;SDS011;10535;50.664;4.564;2022-11-15T07:27:11;10.70;;;3.67;;
20749;SDS011;10535;50.664;4.564;2022-11-15T07:30:31;6.40;;;3.73;;
20749;SDS011;10535;50.664;4.564;2022-11-15T07:33:32;5.97;;;3.43;;
20749;SDS011;10535;50.664;4.564;2022-11-15T07:36:14;5.80;;;3.03;;
20749;SDS011;10535;50.664;4.564;2022-11-15T07:42:18;6.10;;;4.07;;
20749;SDS011;10535;50.664;4.564;2022-11-15T07:45:23;5.90;;;3.33;;
20749;SDS011;10535;50.664;4.564;2022-11-15T07:48:00;6.40;;;3.30;;
20749;SDS011;10535;50.664;4.564;2022-11-15T07:50:30;5.67;;;3.23;;
20749;SDS011;10535;50.664;4.564;2022-11-15T07:53:25;2.57;;;2.30;;
20749;SDS011;10535;50.664;4.564;2022-11-15T07:56:17;3.63;;;2.60;;
20749;SDS011;10535;50.664;4.564;2022-11-15T07:59:07;2.67;;;2.07;;
20749;SDS011;10535;50.664;4.564;2022-11-15T08:01:37;5.20;;;2.27;;
20749;SDS011;10535;50.664;4.564;2022-11-15T08:04:10;5.00;;;2.20;;
20749;SDS011;10535;50.664;4.564;2022-11-15T08:07:31;1.53;;;1.17;;
20749;SDS011;10535;50.664;4.564;2022-11-15T08:10:39;5.30;;;2.37;;
20749;SDS011;10535;50.664;4.564;2022-11-15T08:13:31;4.73;;;2.30;;
20749;SDS011;10535;50.664;4.564;2022-11-15T08:16:47;3.07;;;1.93;;
20749;SDS011;10535;50.664;4.564;2022-11-15T08:20:28;3.87;;;3.07;;
20749;SDS011;10535;50.664;4.564;2022-11-15T08:23:19;8.17;;;1.80;;
20749;SDS011;10535;50.664;4.564;2022-11-15T08:26:57;3.73;;;1.60;;
20749;SDS011;10535;50.664;4.564;2022-11-15T08:30:34;3.93;;;1.37;;
20749;SDS011;10535;50.664;4.564;2022-11-15T08:33:23;5.23;;;1.80;;
20749;SDS011;10535;50.664;4.564;2022-11-15T08:36:25;3.00;;;2.20;;
20749;SDS011;10535;50.664;4.564;2022-11-15T08:39:12;2.17;;;1.33;;
20749;SDS011;10535;50.664;4.564;2022-11-15T08:42:16;1.50;;;1.30;;
20749;SDS011;10535;50.664;4.564;2022-11-15T08:45:02;1.47;;;1.37;;
20749;SDS011;10535;50.664;4.564;2022-11-15T08:48:15;2.77;;;1.00;;
20749;SDS011;10535;50.664;4.564;2022-11-15T08:51:24;5.70;;;1.80;;
20749;SDS011;10535;50.664;4.564;2022-11-15T08:54:15;5.77;;;1.33;;
20749;SDS011;10535;50.664;4.564;2022-11-15T08:57:38;6.07;;;1.07;;
20749;SDS011;10535;50.664;4.564;2022-11-15T09:01:22;4.00;;;1.67;;
20749;SDS011;10535;50.664;4.564;2022-11-15T09:04:00;4.07;;;1.87;;
20749;SDS011;10535;50.664;4.564;2022-11-15T09:06:29;3.13;;;1.33;;
20749;SDS011;10535;50.664;4.564;2022-11-15T09:08:55;3.30;;;1.47;;
20749;SDS011;10535;50.664;4.564;2022-11-15T09:11:27;1.93;;;1.53;;
20749;SDS011;10535;50.664;4.564;2022-11-15T09:13:52;5.57;;;1.17;;
20749;SDS011;10535;50.664;4.564;2022-11-15T09:16:41;1.73;;;1.07;;
20749;SDS011;10535;50.664;4.564;2022-11-15T09:19:12;1.37;;;1.10;;
20749;SDS011;10535;50.664;4.564;2022-11-15T09:21:39;5.80;;;1.77;;
20749;SDS011;10535;50.664;4.564;2022-11-15T09:24:18;6.97;;;1.77;;
20749;SDS011;10535;50.664;4.564;2022-11-15T09:26:55;4.70;;;1.53;;
20749;SDS011;10535;50.664;4.564;2022-11-15T09:29:29;3.87;;;1.47;;
20749;SDS011;10535;50.664;4.564;2022-11-15T09:32:18;1.10;;;0.87;;
20749;SDS011;10535;50.664;4.564;2022-11-15T09:35:03;0.93;;;0.80;;
20749;SDS011;10535;50.664;4.564;2022-11-15T09:37:33;0.93;;;0.70;;
20749;SDS011;10535;50.664;4.564;2022-11-15T09:43:00;3.23;;;1.30;;
20749;SDS011;10535;50.664;4.564;2022-11-15T09:46:36;4.50;;;1.40;;
20749;SDS011;10535;50.664;4.564;2022-11-15T09:49:17;5.17;;;1.37;;
20749;SDS011;10535;50.664;4.564;2022-11-15T09:52:39;1.93;;;1.13;;
20749;SDS011;10535;50.664;4.564;2022-11-15T09:58:05;3.60;;;1.77;;
20749;SDS011;10535;50.664;4.564;2022-11-15T10:03:27;2.23;;;0.90;;
20749;SDS011;10535;50.664;4.564;2022-11-15T10:06:29;4.27;;;0.80;;
20749;SDS011;10535;50.664;4.564;2022-11-15T10:09:24;1.93;;;1.00;;
20749;SDS011;10535;50.664;4.564;2022-11-15T10:12:17;2.87;;;1.13;;
20749;SDS011;10535;50.664;4.564;2022-11-15T10:18:12;2.50;;;0.90;;
20749;SDS011;10535;50.664;4.564;2022-11-15T10:21:29;0.97;;;0.60;;
20749;SDS011;10535;50.664;4.564;2022-11-15T10:24:28;4.10;;;1.00;;
20749;SDS011;10535;50.664;4.564;2022-11-15T10:27:09;1.53;;;1.03;;
20749;SDS011;10535;50.664;4.564;2022-11-15T10:30:15;3.13;;;0.73;;
20749;SDS011;10535;50.664;4.564;2022-11-15T10:39:20;3.20;;;0.77;;
20749;SDS011;10535;50.664;4.564;2022-11-15T10:42:30;1.80;;;0.60;;
20749;SDS011;10535;50.664;4.564;2022-11-15T10:45:34;4.93;;;1.60;;
20749;SDS011;10535;50.664;4.564;2022-11-15T10:48:43;2.33;;;0.73;;
20749;SDS011;10535;50.664;4.564;2022-11-15T10:51:55;1.37;;;1.00;;
20749;SDS011;10535;50.664;4.564;2022-11-15T10:58:43;4.53;;;1.53;;
20749;SDS011;10535;50.664;4.564;2022-11-15T11:01:27;2.67;;;0.90;;
20749;SDS011;10535;50.664;4.564;2022-11-15T11:04:18;0.93;;;0.60;;
20749;SDS011;10535;50.664;4.564;2022-11-15T11:07:40;2.47;;;0.50;;
20749;SDS011;10535;50.664;4.564;2022-11-15T11:10:30;1.27;;;0.70;;
20749;SDS011;10535;50.664;4.564;2022-11-15T11:20:20;2.03;;;0.80;;
20749;SDS011;10535;50.664;4.564;2022-11-15T11:23:34;3.60;;;0.83;;
20749;SDS011;10535;50.664;4.564;2022-11-15T11:30:04;1.90;;;0.70;;
20749;SDS011;10535;50.664;4.564;2022-11-15T11:33:07;3.13;;;0.80;;
20749;SDS011;10535;50.664;4.564;2022-11-15T11:47:23;1.33;;;1.10;;
20749;SDS011;10535;50.664;4.564;2022-11-15T11:57:45;3.07;;;0.90;;
20749;SDS011;10535;50.664;4.564;2022-11-15T12:01:08;2.40;;;0.53;;
20749;SDS011;10535;50.664;4.564;2022-11-15T12:13:31;2.57;;;0.67;;
20749;SDS011;10535;50.664;4.564;2022-11-15T12:19:07;0.97;;;0.70;;
20749;SDS011;10535;50.664;4.564;2022-11-15T12:22:42;1.23;;;0.77;;
20749;SDS011;10535;50.664;4.564;2022-11-15T12:28:49;2.47;;;1.17;;
20749;SDS011;10535;50.664;4.564;2022-11-15T12:31:41;3.00;;;1.00;;
20749;SDS011;10535;50.664;4.564;2022-11-15T12:34:51;1.17;;;0.90;;
20749;SDS011;10535;50.664;4.564;2022-11-15T12:41:42;2.10;;;0.57;;
20749;SDS011;10535;50.664;4.564;2022-11-15T12:47:25;2.03;;;1.13;;
20749;SDS011;10535;50.664;4.564;2022-11-15T12:53:42;4.67;;;1.30;;
20749;SDS011;10535;50.664;4.564;2022-11-15T12:56:35;2.20;;;0.90;;
20749;SDS011;10535;50.664;4.564;2022-11-15T12:59:06;1.40;;;0.73;;
20749;SDS011;10535;50.664;4.564;2022-11-15T13:02:17;2.73;;;0.90;;
20749;SDS011;10535;50.664;4.564;2022-11-15T13:05:51;1.60;;;1.00;;
20749;SDS011;10535;50.664;4.564;2022-11-15T13:09:03;0.63;;;0.47;;
20749;SDS011;10535;50.664;4.564;2022-11-15T13:11:57;3.90;;;1.00;;
20749;SDS011;10535;50.664;4.564;2022-11-15T13:14:58;1.50;;;0.80;;
20749;SDS011;10535;50.664;4.564;2022-11-15T13:18:23;3.13;;;1.03;;
20749;SDS011;10535;50.664;4.564;2022-11-15T13:21:25;1.03;;;0.80;;
20749;SDS011;10535;50.664;4.564;2022-11-15T13:24:37;0.70;;;0.70;;
20749;SDS011;10535;50.664;4.564;2022-11-15T13:30:30;5.13;;;1.30;;
20749;SDS011;10535;50.664;4.564;2022-11-15T13:33:51;2.90;;;1.13;;
20749;SDS011;10535;50.664;4.564;2022-11-15T13:39:06;2.30;;;1.10;;
20749;SDS011;10535;50.664;4.564;2022-11-15T13:42:48;3.90;;;1.10;;
20749;SDS011;10535;50.664;4.564;2022-11-15T13:46:03;0.90;;;0.80;;
20749;SDS011;10535;50.664;4.564;2022-11-15T13:49:09;1.40;;;0.73;;
20749;SDS011;10535;50.664;4.564;2022-11-15T13:52:06;0.83;;;0.83;;
20749;SDS011;10535;50.664;4.564;2022-11-15T13:55:08;1.07;;;0.80;;
20749;SDS011;10535;50.664;4.564;2022-11-15T13:58:42;3.60;;;0.80;;
20749;SDS011;10535;50.664;4.564;2022-11-15T14:01:53;1.30;;;0.80;;
20749;SDS011;10535;50.664;4.564;2022-11-15T14:05:16;2.60;;;0.97;;
20749;SDS011;10535;50.664;4.564;2022-11-15T14:08:41;3.73;;;0.87;;
20749;SDS011;10535;50.664;4.564;2022-11-15T14:12:34;1.27;;;0.90;;
20749;SDS011;10535;50.664;4.564;2022-11-15T14:15:37;2.70;;;1.27;;
20749;SDS011;10535;50.664;4.564;2022-11-15T14:22:50;1.23;;;1.13;;
20749;SDS011;10535;50.664;4.564;2022-11-15T14:25:53;3.70;;;1.27;;
20749;SDS011;10535;50.664;4.564;2022-11-15T14:29:24;1.60;;;0.90;;
20749;SDS011;10535;50.664;4.564;2022-11-15T14:32:50;1.97;;;1.60;;
20749;SDS011;10535;50.664;4.564;2022-11-15T14:36:19;1.57;;;0.90;;
20749;SDS011;10535;50.664;4.564;2022-11-15T14:39:46;3.80;;;1.27;;
20749;SDS011;10535;50.664;4.564;2022-11-15T14:43:02;1.53;;;0.93;;
20749;SDS011;10535;50.664;4.564;2022-11-15T14:46:08;2.43;;;1.10;;
20749;SDS011;10535;50.664;4.564;2022-11-15T14:48:35;0.90;;;0.90;;
20749;SDS011;10535;50.664;4.564;2022-11-15T14:55:35;1.57;;;0.90;;
20749;SDS011;10535;50.664;4.564;2022-11-15T15:02:13;0.93;;;0.80;;
20749;SDS011;10535;50.664;4.564;2022-11-15T15:08:16;1.50;;;1.20;;
20749;SDS011;10535;50.664;4.564;2022-11-15T15:11:41;1.10;;;0.80;;
20749;SDS011;10535;50.664;4.564;2022-11-15T15:15:25;2.17;;;1.13;;
20749;SDS011;10535;50.664;4.564;2022-11-15T15:19:19;1.37;;;1.07;;
20749;SDS011;10535;50.664;4.564;2022-11-15T15:22:31;1.10;;;1.00;;
20749;SDS011;10535;50.664;4.564;2022-11-15T15:26:02;1.73;;;1.30;;
20749;SDS011;10535;50.664;4.564;2022-11-15T15:29:05;1.43;;;0.90;;
20749;SDS011;10535;50.664;4.564;2022-11-15T15:32:09;2.17;;;1.10;;
20749;SDS011;10535;50.664;4.564;2022-11-15T15:35:40;2.33;;;1.07;;
20749;SDS011;10535;50.664;4.564;2022-11-15T15:38:54;2.97;;;1.13;;
20749;SDS011;10535;50.664;4.564;2022-11-15T15:42:18;1.43;;;1.20;;
20749;SDS011;10535;50.664;4.564;2022-11-15T15:45:25;5.77;;;1.20;;
20749;SDS011;10535;50.664;4.564;2022-11-15T15:51:15;2.20;;;1.53;;
20749;SDS011;10535;50.664;4.564;2022-11-15T15:54:27;1.90;;;1.50;;
20749;SDS011;10535;50.664;4.564;2022-11-15T15:57:48;2.63;;;1.47;;
20749;SDS011;10535;50.664;4.564;2022-11-15T16:00:50;2.63;;;1.37;;
20749;SDS011;10535;50.664;4.564;2022-11-15T16:03:43;2.03;;;1.47;;
20749;SDS011;10535;50.664;4.564;2022-11-15T16:06:47;2.23;;;1.60;;
20749;SDS011;10535;50.664;4.564;2022-11-15T16:14:19;3.17;;;1.40;;
20749;SDS011;10535;50.664;4.564;2022-11-15T16:17:38;2.20;;;1.57;;
20749;SDS011;10535;50.664;4.564;2022-11-15T16:23:12;3.10;;;1.80;;
20749;SDS011;10535;50.664;4.564;2022-11-15T16:47:18;2.27;;;1.70;;
20749;SDS011;10535;50.664;4.564;2022-11-15T16:49:45;2.23;;;1.53;;
20749;SDS011;10535;50.664;4.564;2022-11-15T16:52:42;1.60;;;1.50;;
20749;SDS011;10535;50.664;4.564;2022-11-15T17:07:04;2.73;;;1.73;;
20749;SDS011;10535;50.664;4.564;2022-11-15T17:09:34;6.20;;;2.03;;
20749;SDS011;10535;50.664;4.564;2022-11-15T17:12:03;3.37;;;2.10;;
20749;SDS011;10535;50.664;4.564;2022-11-15T17:14:28;2.67;;;1.97;;
20749;SDS011;10535;50.664;4.564;2022-11-15T17:16:54;4.13;;;2.17;;
20749;SDS011;10535;50.664;4.564;2022-11-15T17:19:23;2.80;;;2.00;;
20749;SDS011;10535;50.664;4.564;2022-11-15T17:21:48;3.87;;;2.00;;
20749;SDS011;10535;50.664;4.564;2022-11-15T17:24:14;3.53;;;1.73;;
20749;SDS011;10535;50.664;4.564;2022-11-15T17:26:43;2.53;;;1.80;;
20749;SDS011;10535;50.664;4.564;2022-11-15T17:29:08;4.97;;;2.50;;
20749;SDS011;10535;50.664;4.564;2022-11-15T17:31:34;2.73;;;1.73;;
20749;SDS011;10535;50.664;4.564;2022-11-15T17:34:05;2.43;;;1.70;;
20749;SDS011;10535;50.664;4.564;2022-11-15T17:36:31;2.00;;;1.80;;
20749;SDS011;10535;50.664;4.564;2022-11-15T17:39:01;2.70;;;1.97;;
20749;SDS011;10535;50.664;4.564;2022-11-15T17:41:28;5.50;;;1.50;;
20749;SDS011;10535;50.664;4.564;2022-11-15T17:43:56;3.40;;;1.90;;
20749;SDS011;10535;50.664;4.564;2022-11-15T17:46:24;1.70;;;1.30;;
20749;SDS011;10535;50.664;4.564;2022-11-15T17:48:51;3.10;;;1.80;;
20749;SDS011;10535;50.664;4.564;2022-11-15T17:51:17;2.50;;;1.57;;
20749;SDS011;10535;50.664;4.564;2022-11-15T17:53:44;4.73;;;1.90;;
20749;SDS011;10535;50.664;4.564;2022-11-15T17:56:16;2.10;;;1.70;;
20749;SDS011;10535;50.664;4.564;2022-11-15T17:58:50;2.90;;;2.07;;
20749;SDS011;10535;50.664;4.564;2022-11-15T18:01:40;2.20;;;1.77;;
20749;SDS011;10535;50.664;4.564;2022-11-15T18:04:07;2.93;;;1.57;;
20749;SDS011;10535;50.664;4.564;2022-11-15T18:06:34;4.27;;;2.47;;
20749;SDS011;10535;50.664;4.564;2022-11-15T18:09:01;3.90;;;2.50;;
20749;SDS011;10535;50.664;4.564;2022-11-15T18:11:40;3.50;;;2.40;;
20749;SDS011;10535;50.664;4.564;2022-11-15T18:14:08;4.17;;;2.47;;
20749;SDS011;10535;50.664;4.564;2022-11-15T18:16:55;4.23;;;2.60;;
20749;SDS011;10535;50.664;4.564;2022-11-15T18:19:22;4.87;;;2.43;;
20749;SDS011;10535;50.664;4.564;2022-11-15T18:21:48;4.03;;;2.20;;
20749;SDS011;10535;50.664;4.564;2022-11-15T18:24:32;2.43;;;2.07;;
20749;SDS011;10535;50.664;4.564;2022-11-15T18:26:59;3.17;;;1.97;;
20749;SDS011;10535;50.664;4.564;2022-11-15T18:29:26;7.43;;;2.30;;
20749;SDS011;10535;50.664;4.564;2022-11-15T18:31:52;3.87;;;2.70;;
20749;SDS011;10535;50.664;4.564;2022-11-15T18:34:23;4.43;;;2.00;;
20749;SDS011;10535;50.664;4.564;2022-11-15T18:36:50;4.67;;;3.10;;
20749;SDS011;10535;50.664;4.564;2022-11-15T18:39:16;6.00;;;3.07;;
20749;SDS011;10535;50.664;4.564;2022-11-15T18:41:43;4.60;;;2.53;;
20749;SDS011;10535;50.664;4.564;2022-11-15T18:44:10;3.80;;;2.50;;
20749;SDS011;10535;50.664;4.564;2022-11-15T18:46:37;3.37;;;2.07;;
20749;SDS011;10535;50.664;4.564;2022-11-15T18:49:04;3.70;;;2.40;;
20749;SDS011;10535;50.664;4.564;2022-11-15T18:51:33;4.20;;;2.97;;
20749;SDS011;10535;50.664;4.564;2022-11-15T18:54:00;4.40;;;2.90;;
20749;SDS011;10535;50.664;4.564;2022-11-15T18:56:27;4.63;;;2.70;;
20749;SDS011;10535;50.664;4.564;2022-11-15T18:58:55;4.43;;;2.93;;
20749;SDS011;10535;50.664;4.564;2022-11-15T19:01:23;3.27;;;2.73;;
20749;SDS011;10535;50.664;4.564;2022-11-15T19:03:51;6.93;;;3.43;;
20749;SDS011;10535;50.664;4.564;2022-11-15T19:06:19;5.03;;;3.37;;
20749;SDS011;10535;50.664;4.564;2022-11-15T19:08:47;3.57;;;2.90;;
20749;SDS011;10535;50.664;4.564;2022-11-15T19:11:19;5.93;;;3.23;;
20749;SDS011;10535;50.664;4.564;2022-11-15T19:14:00;4.63;;;3.00;;
20749;SDS011;10535;50.664;4.564;2022-11-15T19:16:28;3.23;;;2.80;;
20749;SDS011;10535;50.664;4.564;2022-11-15T19:18:56;4.00;;;2.67;;
20749;SDS011;10535;50.664;4.564;2022-11-15T19:21:23;6.50;;;2.80;;
20749;SDS011;10535;50.664;4.564;2022-11-15T19:23:49;4.77;;;2.67;;
20749;SDS011;10535;50.664;4.564;2022-11-15T19:26:17;4.27;;;3.07;;
20749;SDS011;10535;50.664;4.564;2022-11-15T19:28:42;3.70;;;2.93;;
20749;SDS011;10535;50.664;4.564;2022-11-15T19:31:12;6.23;;;3.27;;
20749;SDS011;10535;50.664;4.564;2022-11-15T19:33:39;5.77;;;2.80;;
20749;SDS011;10535;50.664;4.564;2022-11-15T19:36:08;6.63;;;3.60;;
20749;SDS011;10535;50.664;4.564;2022-11-15T19:38:34;7.20;;;4.40;;
20749;SDS011;10535;50.664;4.564;2022-11-15T19:41:01;5.43;;;3.07;;
20749;SDS011;10535;50.664;4.564;2022-11-15T19:43:28;7.60;;;3.47;;
20749;SDS011;10535;50.664;4.564;2022-11-15T19:45:54;5.87;;;3.70;;
20749;SDS011;10535;50.664;4.564;2022-11-15T19:48:21;4.07;;;2.97;;
20749;SDS011;10535;50.664;4.564;2022-11-15T19:50:47;6.73;;;3.27;;
20749;SDS011;10535;50.664;4.564;2022-11-15T19:53:13;5.13;;;3.30;;
20749;SDS011;10535;50.664;4.564;2022-11-15T19:55:41;4.07;;;3.23;;
20749;SDS011;10535;50.664;4.564;2022-11-15T19:58:18;5.67;;;3.40;;
20749;SDS011;10535;50.664;4.564;2022-11-15T20:03:39;4.87;;;3.07;;
20749;SDS011;10535;50.664;4.564;2022-11-15T20:06:06;4.20;;;2.70;;
20749;SDS011;10535;50.664;4.564;2022-11-15T20:08:34;5.43;;;3.10;;
20749;SDS011;10535;50.664;4.564;2022-11-15T20:11:02;4.17;;;2.80;;
20749;SDS011;10535;50.664;4.564;2022-11-15T20:13:29;5.50;;;3.17;;
20749;SDS011;10535;50.664;4.564;2022-11-15T20:15:56;7.57;;;3.63;;
20749;SDS011;10535;50.664;4.564;2022-11-15T20:18:22;4.23;;;3.13;;